Time;durP1;ratioP1;P1;durP2;ratioP2;P2;SDS_P1;SDS_P2;PMS_P1;PMS_P2;Temp;Humidity;BMP_temperature;BMP_pressure;BME280_temperature;BME280_humidity;BME280_pressure;Samples;Min_cycle;Max_cycle;Signal;HPM_P1;HPM_P2
2021/10/13 00:01:51;;;;;;;50.00;29.20;;;;;;;;;;4935072;29;20103;-57
2021/10/13 00:04:17;;;;;;;45.42;28.23;;;;;;;;;;4935001;29;20032;-60
2021/10/13 00:06:43;;;;;;;46.35;28.15;;;;;;;;;;4934957;29;20039;-65
2021/10/13 00:09:10;;;;;;;41.13;26.70;;;;;;;;;;4935012;29;20486;-62
2021/10/13 00:11:39;;;;;;;42.17;27.55;;;;;;;;;;4935006;29;20034;-58
2021/10/13 00:14:05;;;;;;;38.72;26.15;;;;;;;;;;4934859;29;20101;-60
2021/10/13 00:16:32;;;;;;;41.88;24.88;;;;;;;;;;4934513;29;20040;-60
2021/10/13 00:18:58;;;;;;;40.08;25.65;;;;;;;;;;4935004;29;20063;-58
2021/10/13 00:21:24;;;;;;;33.55;22.77;;;;;;;;;;4934650;29;20034;-60
2021/10/13 00:23:50;;;;;;;39.08;23.77;;;;;;;;;;4934405;29;20396;-58
2021/10/13 00:26:16;;;;;;;38.35;23.55;;;;;;;;;;4934379;29;20040;-62
2021/10/13 00:28:42;;;;;;;37.25;24.75;;;;;;;;;;4934434;29;20440;-60
2021/10/13 00:31:09;;;;;;;37.88;24.17;;;;;;;;;;4934359;29;20035;-61
2021/10/13 00:33:35;;;;;;;36.80;22.30;;;;;;;;;;4917401;29;20396;-58
2021/10/13 00:36:01;;;;;;;37.15;24.23;;;;;;;;;;4934555;29;20502;-58
2021/10/13 00:38:27;;;;;;;37.13;23.65;;;;;;;;;;4934420;29;20476;-69
2021/10/13 00:40:53;;;;;;;42.28;25.25;;;;;;;;;;4934107;29;20088;-58
2021/10/13 00:43:19;;;;;;;34.88;23.60;;;;;;;;;;4934108;29;20507;-59
2021/10/13 00:45:45;;;;;;;36.90;23.83;;;;;;;;;;4934192;29;20510;-59
2021/10/13 00:48:12;;;;;;;39.55;25.35;;;;;;;;;;4934289;29;20444;-59
2021/10/13 00:50:38;;;;;;;42.55;27.67;;;;;;;;;;4934085;29;20036;-59
2021/10/13 00:53:04;;;;;;;36.22;23.83;;;;;;;;;;4934389;29;20392;-58
2021/10/13 00:55:30;;;;;;;38.33;25.20;;;;;;;;;;4917174;29;20082;-63
2021/10/13 00:57:56;;;;;;;36.50;24.42;;;;;;;;;;4934011;29;20023;-67
2021/10/13 01:00:23;;;;;;;35.58;23.67;;;;;;;;;;4934247;29;20024;-57
2021/10/13 01:02:55;;;;;;;37.63;23.70;;;;;;;;;;4934050;29;20024;-60
2021/10/13 01:05:27;;;;;;;41.30;25.02;;;;;;;;;;4933932;29;20091;-63
2021/10/13 01:07:58;;;;;;;36.00;22.83;;;;;;;;;;4934054;29;20032;-60
2021/10/13 01:10:42;;;;;;;36.55;23.38;;;;;;;;;;4933986;29;20036;-63
2021/10/13 01:13:27;;;;;;;34.28;23.92;;;;;;;;;;4933555;29;20035;-58
2021/10/13 01:16:08;;;;;;;36.60;23.63;;;;;;;;;;4933924;29;20521;-59
2021/10/13 01:18:53;;;;;;;38.45;24.27;;;;;;;;;;4933769;29;20090;-57
2021/10/13 01:21:37;;;;;;;39.85;23.92;;;;;;;;;;4933762;29;20019;-57
2021/10/13 01:24:03;;;;;;;36.17;23.55;;;;;;;;;;4933770;29;20031;-59
2021/10/13 01:26:32;;;;;;;33.85;23.02;;;;;;;;;;4933800;29;20043;-67
2021/10/13 01:29:02;;;;;;;37.95;23.60;;;;;;;;;;4933957;29;20024;-59
2021/10/13 01:31:29;;;;;;;35.70;23.73;;;;;;;;;;4933498;29;20383;-58
2021/10/13 01:33:58;;;;;;;36.45;22.50;;;;;;;;;;4933802;29;20074;-70
2021/10/13 01:36:28;;;;;;;33.22;23.08;;;;;;;;;;4933821;29;20103;-57
2021/10/13 01:38:54;;;;;;;35.47;23.30;;;;;;;;;;4933603;29;20046;-57
2021/10/13 01:41:21;;;;;;;36.50;23.58;;;;;;;;;;4933603;29;20044;-57
2021/10/13 01:43:50;;;;;;;35.85;22.85;;;;;;;;;;4933721;29;20047;-57
2021/10/13 01:46:16;;;;;;;38.55;23.30;;;;;;;;;;4933543;29;20047;-58
2021/10/13 01:48:44;;;;;;;35.83;22.42;;;;;;;;;;4933529;29;20028;-57
2021/10/13 01:51:11;;;;;;;36.90;22.85;;;;;;;;;;4933391;29;20082;-71
2021/10/13 01:53:38;;;;;;;36.42;23.60;;;;;;;;;;4933468;29;20484;-57
2021/10/13 01:56:06;;;;;;;36.97;22.65;;;;;;;;;;4933622;29;20383;-66
2021/10/13 01:58:33;;;;;;;37.30;23.63;;;;;;;;;;4933449;29;20034;-62
2021/10/13 02:01:01;;;;;;;38.08;24.30;;;;;;;;;;4933538;29;20031;-56
2021/10/13 02:03:28;;;;;;;35.70;23.42;;;;;;;;;;4935323;29;20020;-70
2021/10/13 02:05:56;;;;;;;33.00;21.65;;;;;;;;;;4937880;29;20030;-58
2021/10/13 02:08:23;;;;;;;34.38;21.27;;;;;;;;;;4937060;29;20388;-63
2021/10/13 02:10:49;;;;;;;36.40;22.00;;;;;;;;;;4937075;29;20034;-58
2021/10/13 02:13:16;;;;;;;35.78;22.00;;;;;;;;;;4936910;29;20361;-58
2021/10/13 02:15:45;;;;;;;35.50;21.23;;;;;;;;;;4936934;29;20444;-58
2021/10/13 02:18:13;;;;;;;32.33;20.77;;;;;;;;;;4936975;29;20353;-68
2021/10/13 02:20:39;;;;;;;33.65;20.98;;;;;;;;;;4936861;29;20071;-63
2021/10/13 02:23:06;;;;;;;37.53;22.48;;;;;;;;;;4936859;29;20047;-57
2021/10/13 02:25:34;;;;;;;31.40;20.95;;;;;;;;;;4936807;29;20472;-59
2021/10/13 02:28:02;;;;;;;34.42;20.15;;;;;;;;;;4936943;29;20439;-57
2021/10/13 02:30:29;;;;;;;38.50;23.85;;;;;;;;;;4936626;29;20031;-58
2021/10/13 02:32:55;;;;;;;35.33;21.65;;;;;;;;;;4936479;29;20032;-57
2021/10/13 02:35:21;;;;;;;43.45;23.50;;;;;;;;;;4936618;29;20507;-57
2021/10/13 02:37:47;;;;;;;34.72;22.13;;;;;;;;;;4936907;29;20115;-58
2021/10/13 02:40:13;;;;;;;32.83;21.85;;;;;;;;;;4936687;29;20047;-57
2021/10/13 02:42:39;;;;;;;35.08;22.15;;;;;;;;;;4936327;29;20044;-58
2021/10/13 02:45:06;;;;;;;37.08;21.75;;;;;;;;;;4919409;29;20404;-57
2021/10/13 02:47:42;;;;;;;41.33;21.90;;;;;;;;;;4936671;29;20036;-70
2021/10/13 02:50:22;;;;;;;33.65;22.08;;;;;;;;;;4936156;29;20035;-58
2021/10/13 02:53:04;;;;;;;36.60;22.40;;;;;;;;;;4936335;29;20023;-58
2021/10/13 02:55:37;;;;;;;34.97;22.02;;;;;;;;;;4936412;29;20027;-57
2021/10/13 02:58:10;;;;;;;35.33;21.17;;;;;;;;;;4936215;29;20028;-59
2021/10/13 03:00:36;;;;;;;34.13;20.85;;;;;;;;;;4936301;29;20050;-58
2021/10/13 03:03:25;;;;;;;31.90;20.30;;;;;;;;;;4936253;29;20031;-57
2021/10/13 03:05:53;;;;;;;34.63;20.10;;;;;;;;;;4935913;29;20043;-58
2021/10/13 03:08:21;;;;;;;33.72;20.98;;;;;;;;;;4935884;29;20035;-63
2021/10/13 03:10:49;;;;;;;31.83;20.80;;;;;;;;;;4935959;29;20070;-59
2021/10/13 03:13:17;;;;;;;32.17;20.95;;;;;;;;;;4935861;29;20031;-70
2021/10/13 03:15:43;;;;;;;33.85;22.45;;;;;;;;;;4935391;29;20357;-63
2021/10/13 03:18:11;;;;;;;32.95;20.08;;;;;;;;;;4935633;29;20510;-59
2021/10/13 03:20:37;;;;;;;30.85;19.40;;;;;;;;;;4918573;29;20063;-62
2021/10/13 03:23:03;;;;;;;33.17;19.63;;;;;;;;;;4935894;29;20142;-57
2021/10/13 03:25:31;;;;;;;31.73;19.40;;;;;;;;;;4935674;29;20035;-58
2021/10/13 03:27:58;;;;;;;34.90;20.95;;;;;;;;;;4935589;29;20031;-58
2021/10/13 03:30:24;;;;;;;27.98;18.73;;;;;;;;;;4935469;29;20036;-58
2021/10/13 03:32:50;;;;;;;29.30;18.95;;;;;;;;;;4935459;29;20016;-57
2021/10/13 03:35:27;;;;;;;28.20;19.10;;;;;;;;;;4935465;29;20032;-58
2021/10/13 03:37:53;;;;;;;31.63;19.60;;;;;;;;;;4935657;29;20035;-62
2021/10/13 03:40:20;;;;;;;30.48;18.75;;;;;;;;;;4935510;29;20035;-60
2021/10/13 03:42:46;;;;;;;33.17;20.35;;;;;;;;;;4935125;29;20052;-58
2021/10/13 03:45:13;;;;;;;30.75;19.70;;;;;;;;;;4935198;29;20047;-57
2021/10/13 03:47:40;;;;;;;29.40;19.25;;;;;;;;;;4935266;29;20032;-70
2021/10/13 03:50:06;;;;;;;28.77;18.70;;;;;;;;;;4935247;29;20031;-57
2021/10/13 03:52:32;;;;;;;26.73;18.00;;;;;;;;;;4935166;29;20392;-63
2021/10/13 03:54:58;;;;;;;31.15;20.13;;;;;;;;;;4935138;29;20082;-57
2021/10/13 03:57:24;;;;;;;30.33;18.50;;;;;;;;;;4935226;29;20032;-57
2021/10/13 03:59:50;;;;;;;28.33;18.10;;;;;;;;;;4934844;29;20451;-60
2021/10/13 04:02:16;;;;;;;29.50;18.30;;;;;;;;;;4935000;29;20027;-57
2021/10/13 04:04:42;;;;;;;28.20;17.98;;;;;;;;;;4934987;29;20547;-69
2021/10/13 04:07:08;;;;;;;27.58;17.92;;;;;;;;;;4934834;29;20545;-57
2021/10/13 04:09:34;;;;;;;28.42;18.30;;;;;;;;;;4935063;29;20040;-57
2021/10/13 04:12:01;;;;;;;28.95;18.25;;;;;;;;;;4934811;29;20074;-58
2021/10/13 04:14:27;;;;;;;29.40;17.77;;;;;;;;;;4934741;29;20040;-58
2021/10/13 04:16:53;;;;;;;26.95;17.40;;;;;;;;;;4934816;29;20063;-57
2021/10/13 04:19:19;;;;;;;28.38;17.35;;;;;;;;;;4934690;29;20495;-59
2021/10/13 04:21:45;;;;;;;26.25;16.98;;;;;;;;;;4934470;29;20027;-57
2021/10/13 04:24:11;;;;;;;24.92;16.70;;;;;;;;;;4934741;29;20036;-57
2021/10/13 04:26:37;;;;;;;26.65;17.35;;;;;;;;;;4934564;29;20040;-57
2021/10/13 04:29:03;;;;;;;27.33;17.45;;;;;;;;;;4934204;29;20019;-58
2021/10/13 04:31:29;;;;;;;27.88;17.50;;;;;;;;;;4934387;29;20664;-62
2021/10/13 04:33:55;;;;;;;35.88;19.75;;;;;;;;;;4934433;29;20028;-57
2021/10/13 04:36:21;;;;;;;33.30;19.42;;;;;;;;;;4934452;29;20111;-62
2021/10/13 04:38:47;;;;;;;32.83;18.75;;;;;;;;;;4934482;29;20031;-57
2021/10/13 04:41:13;;;;;;;32.03;17.73;;;;;;;;;;4933872;29;20397;-59
2021/10/13 04:43:39;;;;;;;36.38;20.02;;;;;;;;;;4934177;29;20034;-57
2021/10/13 04:46:05;;;;;;;35.55;20.15;;;;;;;;;;4934039;29;20114;-64
2021/10/13 04:48:31;;;;;;;38.13;19.58;;;;;;;;;;4934095;29;20047;-57
2021/10/13 04:50:57;;;;;;;45.00;23.17;;;;;;;;;;4933911;29;20028;-56
2021/10/13 04:53:23;;;;;;;45.03;22.08;;;;;;;;;;4934313;29;20024;-59
2021/10/13 04:55:51;;;;;;;41.58;22.45;;;;;;;;;;4934099;29;20111;-57
2021/10/13 04:58:17;;;;;;;37.75;21.38;;;;;;;;;;4934203;29;20115;-71
2021/10/13 05:00:43;;;;;;;31.02;18.77;;;;;;;;;;4933829;29;20538;-66
2021/10/13 05:03:09;;;;;;;31.65;19.23;;;;;;;;;;4934166;29;20031;-58
2021/10/13 05:05:36;;;;;;;32.88;19.35;;;;;;;;;;4933965;29;20089;-58
2021/10/13 05:08:03;;;;;;;28.17;17.20;;;;;;;;;;4933919;29;20091;-58
2021/10/13 05:10:29;;;;;;;28.80;18.65;;;;;;;;;;4933945;29;20083;-58
2021/10/13 05:12:55;;;;;;;29.38;17.88;;;;;;;;;;4933709;29;20036;-58
2021/10/13 05:15:21;;;;;;;30.77;17.38;;;;;;;;;;4933792;29;20050;-59
2021/10/13 05:17:47;;;;;;;28.50;16.75;;;;;;;;;;4933872;29;20035;-62
2021/10/13 05:20:13;;;;;;;27.85;16.85;;;;;;;;;;4933835;29;20055;-65
2021/10/13 05:22:39;;;;;;;27.20;16.35;;;;;;;;;;4933835;29;20028;-59
2021/10/13 05:25:05;;;;;;;28.02;16.73;;;;;;;;;;4933725;29;20495;-59
2021/10/13 05:27:31;;;;;;;26.02;16.02;;;;;;;;;;4933929;29;20067;-64
2021/10/13 05:29:57;;;;;;;27.48;15.52;;;;;;;;;;4933914;29;20043;-65
2021/10/13 05:32:23;;;;;;;25.73;15.57;;;;;;;;;;4933518;29;20040;-59
2021/10/13 05:34:50;;;;;;;23.75;15.15;;;;;;;;;;4933972;29;20035;-58
2021/10/13 05:37:16;;;;;;;23.60;15.60;;;;;;;;;;4933586;29;20039;-59
2021/10/13 05:39:42;;;;;;;26.30;15.07;;;;;;;;;;4933981;29;20027;-59
2021/10/13 05:42:08;;;;;;;26.27;15.15;;;;;;;;;;4936686;29;20055;-64
2021/10/13 05:44:34;;;;;;;25.02;15.77;;;;;;;;;;4938056;29;20159;-64
2021/10/13 05:47:00;;;;;;;26.08;15.82;;;;;;;;;;4937498;29;20020;-58
2021/10/13 05:49:26;;;;;;;21.35;14.98;;;;;;;;;;4937548;29;20063;-57
2021/10/13 05:51:52;;;;;;;24.30;15.73;;;;;;;;;;4936181;29;20597;-69
2021/10/13 05:54:18;;;;;;;24.83;17.10;;;;;;;;;;4936940;29;20034;-56
2021/10/13 05:56:48;;;;;;;30.33;21.38;;;;;;;;;;4936771;29;20039;-57
2021/10/13 05:59:15;;;;;;;29.83;18.27;;;;;;;;;;4936020;29;20028;-60
2021/10/13 06:01:41;;;;;;;28.35;15.57;;;;;;;;;;4935801;29;20107;-57
2021/10/13 06:04:07;;;;;;;29.77;17.02;;;;;;;;;;4935813;29;20102;-57
2021/10/13 06:06:33;;;;;;;31.38;17.83;;;;;;;;;;4935714;29;20126;-58
2021/10/13 06:08:59;;;;;;;25.50;15.40;;;;;;;;;;4933145;29;20988;-57
2021/10/13 06:11:25;;;;;;;22.17;15.23;;;;;;;;;;4935752;29;20035;-62
2021/10/13 06:13:52;;;;;;;29.27;17.00;;;;;;;;;;4935562;29;20034;-57
2021/10/13 06:16:19;;;;;;;24.60;15.27;;;;;;;;;;4933293;29;20024;-58
2021/10/13 06:18:46;;;;;;;25.05;15.80;;;;;;;;;;4935437;29;20055;-60
2021/10/13 06:21:13;;;;;;;23.50;14.43;;;;;;;;;;4935667;29;20102;-58
2021/10/13 06:23:39;;;;;;;21.75;15.15;;;;;;;;;;4933165;29;20492;-65
2021/10/13 06:26:05;;;;;;;28.63;16.45;;;;;;;;;;4935366;29;20118;-72
2021/10/13 06:28:31;;;;;;;23.73;15.55;;;;;;;;;;4935738;29;20050;-65
2021/10/13 06:30:58;;;;;;;26.77;17.17;;;;;;;;;;4935449;29;20083;-60
2021/10/13 06:33:24;;;;;;;27.30;17.10;;;;;;;;;;4935273;29;20111;-60
2021/10/13 06:35:51;;;;;;;28.60;18.00;;;;;;;;;;4935360;29;20507;-59
2021/10/13 06:38:17;;;;;;;28.77;18.67;;;;;;;;;;4935235;29;20099;-57
2021/10/13 06:40:43;;;;;;;30.05;18.90;;;;;;;;;;4935179;29;20040;-58
2021/10/13 06:43:11;;;;;;;36.50;20.27;;;;;;;;;;4935220;29;20099;-61
2021/10/13 06:45:38;;;;;;;33.25;21.85;;;;;;;;;;4935304;29;20046;-58
2021/10/13 06:48:05;;;;;;;34.22;21.77;;;;;;;;;;4935184;29;20024;-57
2021/10/13 06:50:31;;;;;;;32.35;21.65;;;;;;;;;;4935150;29;20036;-58
2021/10/13 06:52:57;;;;;;;31.90;21.25;;;;;;;;;;4934569;29;20055;-59
2021/10/13 06:55:23;;;;;;;40.80;21.27;;;;;;;;;;4935348;29;20087;-58
2021/10/13 06:57:49;;;;;;;36.47;22.85;;;;;;;;;;4935214;29;20024;-57
2021/10/13 07:00:16;;;;;;;36.50;22.38;;;;;;;;;;4934796;29;20110;-56
2021/10/13 07:02:42;;;;;;;29.90;21.85;;;;;;;;;;4935054;29;20067;-57
2021/10/13 07:05:08;;;;;;;33.10;22.80;;;;;;;;;;4925427;29;20107;-66
2021/10/13 07:07:34;;;;;;;34.00;23.65;;;;;;;;;;4934964;29;20524;-71
2021/10/13 07:10:00;;;;;;;32.55;21.33;;;;;;;;;;4934213;29;20032;-64
2021/10/13 07:12:26;;;;;;;29.17;19.83;;;;;;;;;;4934042;29;20027;-57
2021/10/13 07:14:52;;;;;;;29.58;19.85;;;;;;;;;;4934258;29;20036;-58
2021/10/13 07:17:18;;;;;;;32.15;19.45;;;;;;;;;;4934397;29;20024;-60
2021/10/13 07:19:44;;;;;;;31.55;19.48;;;;;;;;;;4934330;29;20039;-57
2021/10/13 07:22:10;;;;;;;31.77;20.27;;;;;;;;;;4934394;29;20126;-70
2021/10/13 07:24:36;;;;;;;34.50;22.25;;;;;;;;;;4934261;29;20063;-73
2021/10/13 07:27:02;;;;;;;32.95;20.67;;;;;;;;;;4935298;29;20182;-63
2021/10/13 07:29:28;;;;;;;33.28;20.60;;;;;;;;;;4935722;29;20078;-57
2021/10/13 07:31:55;;;;;;;31.55;20.98;;;;;;;;;;4935274;29;20059;-57
2021/10/13 07:34:21;;;;;;;30.30;19.42;;;;;;;;;;4935432;29;20027;-63
2021/10/13 07:36:48;;;;;;;30.92;19.35;;;;;;;;;;4935291;29;20123;-57
2021/10/13 07:39:14;;;;;;;29.38;19.58;;;;;;;;;;4935427;29;20035;-71
2021/10/13 07:41:40;;;;;;;31.30;18.35;;;;;;;;;;4935353;29;20123;-71
2021/10/13 07:44:07;;;;;;;31.42;19.27;;;;;;;;;;4935307;29;20110;-61
2021/10/13 07:46:33;;;;;;;32.35;17.88;;;;;;;;;;4935000;29;20674;-72
2021/10/13 07:48:59;;;;;;;29.20;18.10;;;;;;;;;;4934889;29;20031;-64
2021/10/13 07:51:25;;;;;;;28.17;16.83;;;;;;;;;;4934998;29;20062;-60
2021/10/13 07:53:51;;;;;;;26.25;16.58;;;;;;;;;;4935303;29;20039;-59
2021/10/13 07:56:17;;;;;;;23.77;15.40;;;;;;;;;;4935014;29;20415;-69
2021/10/13 07:58:43;;;;;;;26.52;14.60;;;;;;;;;;4935343;29;20028;-70
2021/10/13 08:01:09;;;;;;;27.10;16.20;;;;;;;;;;4934922;29;20106;-63
2021/10/13 08:03:35;;;;;;;24.42;16.30;;;;;;;;;;4934433;29;20028;-58
2021/10/13 08:06:02;;;;;;;29.15;18.58;;;;;;;;;;4934833;29;20043;-58
2021/10/13 08:08:28;;;;;;;32.20;16.15;;;;;;;;;;4934778;29;20461;-59
2021/10/13 08:10:54;;;;;;;25.83;17.13;;;;;;;;;;4934897;29;20035;-60
2021/10/13 08:13:20;;;;;;;26.05;15.68;;;;;;;;;;4934207;29;20123;-69
2021/10/13 08:15:46;;;;;;;24.95;15.70;;;;;;;;;;4934795;29;20368;-57
2021/10/13 08:18:12;;;;;;;25.63;15.63;;;;;;;;;;4934537;29;20034;-58
2021/10/13 08:20:38;;;;;;;27.20;16.48;;;;;;;;;;4934563;29;20444;-67
2021/10/13 08:23:04;;;;;;;25.27;14.90;;;;;;;;;;4934703;29;20391;-61
2021/10/13 08:25:30;;;;;;;26.40;15.35;;;;;;;;;;4934253;29;20112;-72
2021/10/13 08:27:56;;;;;;;27.08;15.80;;;;;;;;;;4934213;29;20519;-57
2021/10/13 08:30:22;;;;;;;23.85;15.63;;;;;;;;;;4934449;29;20484;-71
2021/10/13 08:32:48;;;;;;;24.83;15.23;;;;;;;;;;4934617;29;20035;-70
2021/10/13 08:35:14;;;;;;;25.13;16.10;;;;;;;;;;4934425;29;20047;-70
2021/10/13 08:37:40;;;;;;;26.63;15.82;;;;;;;;;;4934138;29;20514;-64
2021/10/13 08:40:07;;;;;;;25.35;14.80;;;;;;;;;;4934005;29;20122;-57
2021/10/13 08:42:33;;;;;;;24.52;14.07;;;;;;;;;;4933944;29;20071;-57
2021/10/13 08:44:59;;;;;;;23.00;14.73;;;;;;;;;;4933997;29;20040;-66
2021/10/13 08:47:25;;;;;;;22.45;13.93;;;;;;;;;;4932806;29;20028;-74
2021/10/13 08:49:53;;;;;;;22.55;14.15;;;;;;;;;;4922827;29;20119;-74
2021/10/13 08:52:19;;;;;;;22.38;13.63;;;;;;;;;;4933202;29;20024;-71
2021/10/13 08:54:45;;;;;;;31.92;16.85;;;;;;;;;;4930442;29;20020;-76
2021/10/13 08:57:20;;;;;;;23.77;14.07;;;;;;;;;;4932689;29;20059;-71
2021/10/13 08:59:50;;;;;;;26.77;14.57;;;;;;;;;;4930415;29;20471;-55
2021/10/13 09:02:18;;;;;;;22.45;14.02;;;;;;;;;;4932521;29;20039;-68
2021/10/13 09:05:03;;;;;;;27.13;13.73;;;;;;;;;;4930990;29;20525;-73
2021/10/13 09:07:29;;;;;;;22.95;13.55;;;;;;;;;;4932515;29;20153;-74
2021/10/13 09:09:56;;;;;;;23.58;15.82;;;;;;;;;;4932766;29;20055;-70
2021/10/13 09:12:41;;;;;;;23.58;13.95;;;;;;;;;;4932579;29;20048;-71
2021/10/13 09:15:14;;;;;;;23.90;15.77;;;;;;;;;;4931677;29;20483;-74
2021/10/13 09:17:50;;;;;;;24.98;14.52;;;;;;;;;;4928271;29;20035;-56
2021/10/13 09:20:17;;;;;;;27.25;13.68;;;;;;;;;;4930795;29;20028;-73
2021/10/13 09:22:54;;;;;;;24.15;14.07;;;;;;;;;;4932871;29;20035;-76
2021/10/13 09:25:20;;;;;;;27.50;15.57;;;;;;;;;;4930328;29;20041;-58
2021/10/13 09:27:46;;;;;;;25.38;14.48;;;;;;;;;;4933114;29;20049;-70
2021/10/13 09:30:12;;;;;;;23.42;13.38;;;;;;;;;;4932981;29;20025;-61
2021/10/13 09:32:42;;;;;;;22.92;12.93;;;;;;;;;;4932386;29;20115;-67
2021/10/13 09:35:09;;;;;;;27.30;15.43;;;;;;;;;;4932353;29;20042;-65
2021/10/13 09:37:47;;;;;;;23.00;14.00;;;;;;;;;;4930742;29;20043;-59
2021/10/13 09:40:13;;;;;;;42.50;27.80;;;;;;;;;;4931619;29;20055;-71
2021/10/13 09:42:41;;;;;;;27.65;17.77;;;;;;;;;;4931528;29;20055;-67
2021/10/13 09:45:11;;;;;;;27.98;14.90;;;;;;;;;;4932092;29;20043;-63
2021/10/13 09:47:38;;;;;;;23.75;14.52;;;;;;;;;;4932200;29;20083;-67
2021/10/13 09:50:11;;;;;;;25.00;14.32;;;;;;;;;;4932072;29;20031;-64
2021/10/13 09:52:38;;;;;;;22.88;13.73;;;;;;;;;;4932036;29;20035;-64
2021/10/13 09:55:05;;;;;;;21.55;14.60;;;;;;;;;;4932240;29;20111;-70
2021/10/13 09:57:33;;;;;;;26.63;14.20;;;;;;;;;;4931737;29;20024;-61
2021/10/13 10:00:13;;;;;;;24.40;14.02;;;;;;;;;;4931910;29;20028;-61
2021/10/13 10:02:39;;;;;;;23.27;13.93;;;;;;;;;;4931860;29;20059;-62
2021/10/13 10:05:16;;;;;;;19.95;12.63;;;;;;;;;;4933091;29;20441;-67
2021/10/13 10:07:43;;;;;;;19.80;13.07;;;;;;;;;;4933219;29;20099;-74
2021/10/13 10:10:09;;;;;;;20.13;12.63;;;;;;;;;;4932887;29;20098;-74
2021/10/13 10:12:54;;;;;;;15.82;9.68;;;;;;;;;;4932724;29;20036;-62
2021/10/13 10:15:38;;;;;;;16.52;10.80;;;;;;;;;;4933338;29;20043;-66
2021/10/13 10:18:26;;;;;;;16.85;10.13;;;;;;;;;;4932879;29;20399;-63
2021/10/13 10:20:53;;;;;;;23.70;11.48;;;;;;;;;;4932374;29;20028;-62
2021/10/13 10:23:30;;;;;;;18.80;11.57;;;;;;;;;;4932699;29;20034;-59
2021/10/13 10:25:58;;;;;;;17.40;10.95;;;;;;;;;;4933937;29;20126;-57
2021/10/13 10:28:53;;;;;;;21.35;12.32;;;;;;;;;;4936519;29;20053;-63
2021/10/13 10:31:28;;;;;;;18.08;11.07;;;;;;;;;;4931666;29;20481;-59
2021/10/13 10:34:03;;;;;;;18.30;11.77;;;;;;;;;;4935724;29;20551;-60
2021/10/13 10:36:35;;;;;;;17.73;10.48;;;;;;;;;;4936294;29;20103;-74
2021/10/13 10:39:03;;;;;;;17.95;11.50;;;;;;;;;;4936158;29;20035;-63
2021/10/13 10:41:48;;;;;;;20.88;12.73;;;;;;;;;;4936146;29;20407;-57
2021/10/13 10:44:27;;;;;;;20.33;13.50;;;;;;;;;;4935602;29;20174;-62
2021/10/13 10:46:59;;;;;;;18.27;12.13;;;;;;;;;;4924223;29;20568;-65
2021/10/13 10:49:47;;;;;;;23.48;11.45;;;;;;;;;;4923681;29;20122;-58
2021/10/13 10:52:14;;;;;;;17.60;11.70;;;;;;;;;;4923922;29;20651;-64
2021/10/13 10:54:40;;;;;;;16.10;11.32;;;;;;;;;;4920790;29;20040;-71
2021/10/13 10:57:25;;;;;;;22.67;11.52;;;;;;;;;;4930918;29;20484;-67
2021/10/13 10:59:51;;;;;;;20.88;10.93;;;;;;;;;;4932389;29;20027;-68
2021/10/13 11:02:22;;;;;;;16.33;11.20;;;;;;;;;;4933297;29;20034;-71
2021/10/13 11:05:20;;;;;;;16.75;11.00;;;;;;;;;;4932626;29;20440;-64
2021/10/13 11:07:48;;;;;;;17.20;10.20;;;;;;;;;;4878855;29;20048;-74
2021/10/13 11:10:14;;;;;;;17.30;8.85;;;;;;;;;;4879230;29;20219;-68
2021/10/13 11:12:49;;;;;;;16.95;10.10;;;;;;;;;;4884962;29;20032;-57
2021/10/13 11:15:16;;;;;;;19.15;10.10;;;;;;;;;;4885314;29;20629;-63
2021/10/13 11:17:42;;;;;;;15.85;8.75;;;;;;;;;;4884259;29;20041;-67
2021/10/13 11:20:12;;;;;;;14.52;9.68;;;;;;;;;;4884083;29;20029;-69
2021/10/13 11:22:38;;;;;;;17.75;9.50;;;;;;;;;;4881638;29;20503;-57
2021/10/13 11:25:15;;;;;;;13.23;9.48;;;;;;;;;;4884368;29;20049;-56
2021/10/13 11:27:42;;;;;;;14.05;9.07;;;;;;;;;;4881743;29;20051;-62
2021/10/13 11:30:17;;;;;;;13.93;8.45;;;;;;;;;;4883921;29;20041;-63
2021/10/13 11:32:44;;;;;;;13.10;8.48;;;;;;;;;;4882252;29;20124;-67
2021/10/13 11:35:10;;;;;;;14.82;9.30;;;;;;;;;;4883557;29;20029;-60
2021/10/13 11:37:36;;;;;;;14.68;8.85;;;;;;;;;;4883242;29;20127;-61
2021/10/13 11:40:03;;;;;;;11.95;7.85;;;;;;;;;;4883018;29;20130;-58
2021/10/13 11:42:31;;;;;;;13.35;8.32;;;;;;;;;;4890358;29;20124;-62
2021/10/13 11:44:57;;;;;;;16.85;9.75;;;;;;;;;;4932757;29;20054;-69
2021/10/13 11:47:29;;;;;;;13.80;8.73;;;;;;;;;;4923219;29;20377;-71
2021/10/13 11:50:04;;;;;;;13.70;8.80;;;;;;;;;;4933200;29;20516;-56
2021/10/13 11:52:31;;;;;;;17.42;10.65;;;;;;;;;;4933621;29;20035;-71
2021/10/13 11:55:05;;;;;;;13.13;8.60;;;;;;;;;;4934072;29;20114;-69
2021/10/13 11:57:32;;;;;;;9.25;5.45;;;;;;;;;;4934245;29;20042;-62
2021/10/13 12:00:08;;;;;;;11.75;7.75;;;;;;;;;;4934595;29;20031;-72
2021/10/13 12:02:35;;;;;;;12.90;7.75;;;;;;;;;;4934524;29;20163;-70
2021/10/13 12:05:04;;;;;;;10.43;7.00;;;;;;;;;;4934352;29;20032;-61
2021/10/13 12:07:30;;;;;;;12.60;8.32;;;;;;;;;;4934631;29;20428;-58
2021/10/13 12:10:05;;;;;;;12.85;8.32;;;;;;;;;;4934328;29;20036;-57
2021/10/13 12:12:31;;;;;;;8.93;5.95;;;;;;;;;;4934252;29;20175;-58
2021/10/13 12:14:57;;;;;;;10.70;7.78;;;;;;;;;;4933318;29;20031;-56
2021/10/13 12:17:27;;;;;;;11.23;7.82;;;;;;;;;;4933646;29;20082;-74
2021/10/13 12:19:54;;;;;;;12.73;7.93;;;;;;;;;;4934554;29;20380;-61
2021/10/13 12:22:20;;;;;;;11.70;7.82;;;;;;;;;;4934218;29;20059;-61
2021/10/13 12:24:46;;;;;;;13.45;8.32;;;;;;;;;;4934284;29;20035;-60
2021/10/13 12:27:12;;;;;;;11.32;6.82;;;;;;;;;;4931728;29;20578;-68
2021/10/13 12:29:39;;;;;;;13.55;8.50;;;;;;;;;;4932822;29;20056;-70
2021/10/13 12:32:16;;;;;;;13.52;8.52;;;;;;;;;;4932888;29;20051;-67
2021/10/13 12:34:42;;;;;;;13.48;8.45;;;;;;;;;;4930372;29;20156;-66
2021/10/13 12:37:09;;;;;;;12.35;8.27;;;;;;;;;;4932639;29;20373;-64
2021/10/13 12:39:35;;;;;;;13.90;9.52;;;;;;;;;;4932561;29;20040;-63
2021/10/13 12:42:03;;;;;;;14.73;10.00;;;;;;;;;;4933260;29;20043;-68
2021/10/13 12:44:30;;;;;;;12.18;8.02;;;;;;;;;;4934061;29;20028;-72
2021/10/13 12:47:05;;;;;;;14.60;9.07;;;;;;;;;;4934265;29;20046;-63
2021/10/13 12:49:34;;;;;;;9.85;5.15;;;;;;;;;;4934013;29;20455;-70
2021/10/13 12:52:05;;;;;;;7.43;4.03;;;;;;;;;;4933745;29;20028;-66
2021/10/13 12:54:32;;;;;;;2.97;1.48;;;;;;;;;;4933581;29;20028;-68
2021/10/13 12:56:59;;;;;;;6.20;2.35;;;;;;;;;;4933631;29;20059;-58
2021/10/13 12:59:25;;;;;;;2.92;1.45;;;;;;;;;;4933739;29;20040;-71
2021/10/13 13:01:52;;;;;;;4.28;3.05;;;;;;;;;;4933460;29;20031;-66
2021/10/13 13:04:19;;;;;;;5.40;2.50;;;;;;;;;;4933689;29;20035;-64
2021/10/13 13:06:45;;;;;;;7.00;3.05;;;;;;;;;;4933654;29;20119;-66
2021/10/13 13:09:11;;;;;;;4.25;2.92;;;;;;;;;;4933720;29;20110;-67
2021/10/13 13:11:38;;;;;;;6.43;3.05;;;;;;;;;;4933653;29;20032;-58
2021/10/13 13:14:04;;;;;;;7.45;3.80;;;;;;;;;;4933628;29;20086;-68
2021/10/13 13:16:30;;;;;;;19.27;10.38;;;;;;;;;;4933240;29;20329;-69
2021/10/13 13:18:56;;;;;;;9.88;4.78;;;;;;;;;;4932255;29;20031;-60
2021/10/13 13:21:22;;;;;;;25.90;13.32;;;;;;;;;;4933565;29;20046;-62
2021/10/13 13:23:50;;;;;;;26.02;11.98;;;;;;;;;;4933188;29;20027;-64
2021/10/13 13:26:16;;;;;;;37.33;16.67;;;;;;;;;;4933278;29;20040;-66
2021/10/13 13:28:42;;;;;;;7.53;3.88;;;;;;;;;;4933598;29;20028;-67
2021/10/13 13:31:08;;;;;;;8.88;5.05;;;;;;;;;;4933414;29;20035;-68
2021/10/13 13:33:35;;;;;;;14.85;8.27;;;;;;;;;;4933047;29;20050;-60
2021/10/13 13:36:01;;;;;;;17.08;6.22;;;;;;;;;;4933241;29;20031;-65
2021/10/13 13:38:27;;;;;;;14.07;8.05;;;;;;;;;;4933344;29;20483;-67
2021/10/13 13:40:53;;;;;;;9.57;4.30;;;;;;;;;;4933032;29;20500;-65
2021/10/13 13:43:20;;;;;;;7.50;4.40;;;;;;;;;;4933553;29;20156;-69
2021/10/13 13:45:47;;;;;;;8.25;4.28;;;;;;;;;;4933415;29;20086;-67
2021/10/13 13:48:13;;;;;;;9.30;5.30;;;;;;;;;;4933252;29;20028;-72
2021/10/13 13:50:39;;;;;;;12.88;6.80;;;;;;;;;;4933245;29;20028;-71
2021/10/13 13:53:05;;;;;;;13.40;7.32;;;;;;;;;;4932318;29;20067;-69
2021/10/13 13:55:31;;;;;;;19.85;13.02;;;;;;;;;;4931004;29;20039;-60
2021/10/13 13:57:57;;;;;;;36.28;26.27;;;;;;;;;;4933135;29;20515;-69
2021/10/13 14:00:23;;;;;;;29.35;23.38;;;;;;;;;;4933745;29;20189;-71
2021/10/13 14:02:49;;;;;;;14.77;11.07;;;;;;;;;;4936905;29;20396;-68
2021/10/13 14:05:15;;;;;;;17.88;11.38;;;;;;;;;;4936776;29;20040;-68
2021/10/13 14:07:41;;;;;;;13.05;8.20;;;;;;;;;;4936305;29;20036;-61
2021/10/13 14:10:08;;;;;;;11.35;8.40;;;;;;;;;;4936966;29;20057;-69
2021/10/13 14:12:35;;;;;;;12.40;8.65;;;;;;;;;;4936618;29;20055;-61
2021/10/13 14:15:01;;;;;;;12.93;8.38;;;;;;;;;;4937033;29;20020;-58
2021/10/13 14:17:27;;;;;;;13.93;8.95;;;;;;;;;;4936575;29;20042;-58
2021/10/13 14:19:54;;;;;;;15.35;9.18;;;;;;;;;;4936350;29;20122;-60
2021/10/13 14:22:20;;;;;;;12.82;8.20;;;;;;;;;;4936231;29;20495;-69
2021/10/13 14:24:46;;;;;;;9.73;6.85;;;;;;;;;;4936642;29;20028;-63
2021/10/13 14:27:12;;;;;;;13.27;7.68;;;;;;;;;;4935894;29;20059;-58